Time;durP1;ratioP1;P1;durP2;ratioP2;P2;SDS_P1;SDS_P2;PMS_P1;PMS_P2;Temp;Humidity;BMP_temperature;BMP_pressure;BME280_temperature;BME280_humidity;BME280_pressure;Samples;Min_cycle;Max_cycle;Signal;HPM_P1;HPM_P2
2022/04/02 00:00:04;;;;;;;;;;;2.20;94.80;;;;;;5041809;28;19999;-72
2022/04/02 00:02:29;;;;;;;;;;;2.20;94.90;;;;;;5041697;28;19912;-72
2022/04/02 00:04:55;;;;;;;;;;;2.20;95.00;;;;;;5039708;28;20348;-73
2022/04/02 00:07:20;;;;;;;;;;;2.10;95.30;;;;;;5040341;28;19959;-73
2022/04/02 00:09:46;;;;;;;;;;;2.10;95.10;;;;;;5041638;28;19935;-73
2022/04/02 00:12:11;;;;;;;;;;;2.10;95.20;;;;;;5041006;28;20407;-73
2022/04/02 00:14:37;;;;;;;;;;;2.10;95.50;;;;;;5042538;28;19913;-73
2022/04/02 00:17:03;;;;;;;;;;;2.10;95.60;;;;;;5041783;28;20480;-73
2022/04/02 00:19:30;;;;;;;;;;;2.10;95.90;;;;;;5038464;28;19927;-73
2022/04/02 00:21:56;;;;;;;;;;;2.10;95.90;;;;;;5039583;28;20361;-72
2022/04/02 00:24:21;;;;;;;;;;;2.10;96.00;;;;;;5041556;28;19943;-73
2022/04/02 00:26:47;;;;;;;;;;;2.00;95.90;;;;;;5041945;28;19910;-72
2022/04/02 00:29:12;;;;;;;;;;;2.00;96.10;;;;;;5039073;28;19924;-72
2022/04/02 00:31:38;;;;;;;;;;;2.00;96.10;;;;;;5041677;28;19913;-72
2022/04/02 00:34:03;;;;;;;;;;;2.00;96.10;;;;;;5041298;28;20369;-72
2022/04/02 00:36:31;;;;;;;;;;;2.00;96.20;;;;;;5041719;28;19920;-72
2022/04/02 00:38:56;;;;;;;;;;;2.00;96.10;;;;;;5041097;28;19916;-73
2022/04/02 00:41:22;;;;;;;;;;;2.00;96.10;;;;;;5041183;28;20020;-72
2022/04/02 00:43:57;;;;;;;;;;;2.00;96.00;;;;;;5040099;28;20305;-72
2022/04/02 00:46:23;;;;;;;;;;;2.00;96.00;;;;;;5039427;28;19960;-72
2022/04/02 00:48:50;;;;;;;;;;;2.00;95.70;;;;;;5041265;28;19944;-72
2022/04/02 00:51:16;;;;;;;;;;;2.00;95.50;;;;;;5040687;28;19913;-72
2022/04/02 00:53:46;;;;;;;;;;;2.00;95.30;;;;;;5040803;28;19931;-72
2022/04/02 00:56:12;;;;;;;;;;;1.90;95.40;;;;;;5040340;28;19912;-72
2022/04/02 00:58:39;;;;;;;;;;;1.90;95.50;;;;;;5041079;28;19913;-72
2022/04/02 01:01:06;;;;;;;;;;;1.90;95.50;;;;;;5039430;28;20373;-72
2022/04/02 01:03:32;;;;;;;;;;;1.90;95.50;;;;;;5038630;28;19917;-71
2022/04/02 01:05:57;;;;;;;;;;;1.90;95.60;;;;;;5040002;28;19921;-72
2022/04/02 01:08:23;;;;;;;;;;;1.90;95.70;;;;;;5039359;28;19920;-71
2022/04/02 01:10:48;;;;;;;;;;;1.90;95.80;;;;;;5040118;28;20411;-71
2022/04/02 01:13:16;;;;;;;;;;;1.90;95.70;;;;;;5040849;28;20373;-72
2022/04/02 01:15:41;;;;;;;;;;;1.80;95.80;;;;;;5041124;28;20000;-72
2022/04/02 01:18:07;;;;;;;;;;;1.80;95.80;;;;;;5040743;28;20500;-71
2022/04/02 01:20:33;;;;;;;;;;;1.80;95.80;;;;;;5041112;28;20384;-72
2022/04/02 01:22:59;;;;;;;;;;;1.80;95.60;;;;;;5040663;28;19979;-71
2022/04/02 01:25:25;;;;;;;;;;;1.80;95.60;;;;;;5038256;28;20397;-71
2022/04/02 01:27:51;;;;;;;;;;;1.80;95.80;;;;;;5040341;28;19909;-72
2022/04/02 01:30:16;;;;;;;;;;;1.80;95.80;;;;;;5038251;28;19936;-71
2022/04/02 01:32:42;;;;;;;;;;;1.80;95.90;;;;;;5040326;28;19909;-71
2022/04/02 01:35:08;;;;;;;;;;;1.70;95.90;;;;;;5038919;28;19916;-71
2022/04/02 01:37:34;;;;;;;;;;;1.70;96.00;;;;;;5040369;28;19919;-72
2022/04/02 01:40:00;;;;;;;;;;;1.70;96.00;;;;;;5040119;28;19913;-72
2022/04/02 01:42:26;;;;;;;;;;;1.70;96.10;;;;;;5039898;28;19909;-71
2022/04/02 01:44:52;;;;;;;;;;;1.70;96.10;;;;;;5038138;28;20364;-71
2022/04/02 01:47:18;;;;;;;;;;;1.70;96.20;;;;;;5038894;28;19967;-72
2022/04/02 01:49:44;;;;;;;;;;;1.70;96.40;;;;;;5039701;28;19916;-72
2022/04/02 01:52:09;;;;;;;;;;;1.70;96.40;;;;;;5036506;28;19916;-72
2022/04/02 01:54:35;;;;;;;;;;;1.70;96.30;;;;;;5039344;28;20412;-71
2022/04/02 01:57:01;;;;;;;;;;;1.70;96.50;;;;;;5039423;28;20380;-72
2022/04/02 01:59:26;;;;;;;;;;;1.70;96.80;;;;;;5039021;28;19909;-71
2022/04/02 02:01:52;;;;;;;;;;;1.60;97.10;;;;;;5039499;28;19908;-72
2022/04/02 02:04:18;;;;;;;;;;;1.60;97.30;;;;;;5039833;28;19953;-72
2022/04/02 02:06:45;;;;;;;;;;;1.60;97.30;;;;;;5040442;28;20448;-71
2022/04/02 02:09:10;;;;;;;;;;;1.50;97.50;;;;;;5037966;28;20011;-71
2022/04/02 02:11:36;;;;;;;;;;;1.50;97.80;;;;;;5039425;28;19992;-71
2022/04/02 02:14:01;;;;;;;;;;;1.40;97.90;;;;;;5039773;28;19963;-71
2022/04/02 02:16:27;;;;;;;;;;;1.40;98.00;;;;;;5036822;28;19920;-71
2022/04/02 02:18:52;;;;;;;;;;;1.30;98.20;;;;;;5036890;28;19921;-71
2022/04/02 02:21:18;;;;;;;;;;;1.30;98.40;;;;;;5039249;28;19909;-71
2022/04/02 02:23:43;;;;;;;;;;;1.20;98.60;;;;;;5039681;28;20377;-71
2022/04/02 02:26:09;;;;;;;;;;;1.20;98.50;;;;;;5039545;28;19999;-71
2022/04/02 02:28:34;;;;;;;;;;;1.20;98.70;;;;;;5039619;28;19951;-71
2022/04/02 02:31:00;;;;;;;;;;;1.20;98.90;;;;;;5039206;28;20365;-71
2022/04/02 02:36:14;;;;;;;;;;;1.10;99.20;;;;;;5008241;28;19917;-71
2022/04/02 02:38:39;;;;;;;;;;;1.00;99.20;;;;;;5039470;28;19924;-71
2022/04/02 02:41:05;;;;;;;;;;;1.00;99.10;;;;;;5038022;28;19962;-71
2022/04/02 02:43:30;;;;;;;;;;;1.00;99.10;;;;;;5039143;28;19909;-71
2022/04/02 02:45:55;;;;;;;;;;;1.00;99.30;;;;;;5038888;28;19909;-71
2022/04/02 02:48:21;;;;;;;;;;;0.90;99.20;;;;;;5038874;28;19974;-71
2022/04/02 02:50:46;;;;;;;;;;;0.90;99.10;;;;;;5039216;28;19909;-71
2022/04/02 02:53:12;;;;;;;;;;;0.90;99.10;;;;;;5036061;28;20389;-71
2022/04/02 02:55:37;;;;;;;;;;;0.90;99.30;;;;;;5038200;28;20325;-71
2022/04/02 02:58:03;;;;;;;;;;;0.90;99.20;;;;;;5038266;28;19917;-71
2022/04/02 03:00:28;;;;;;;;;;;0.90;99.00;;;;;;5039536;28;19917;-71
2022/04/02 03:02:54;;;;;;;;;;;0.90;99.20;;;;;;5038483;28;19948;-72
2022/04/02 03:05:20;;;;;;;;;;;0.90;99.20;;;;;;5039101;28;20267;-71
2022/04/02 03:07:49;;;;;;;;;;;0.80;99.20;;;;;;5039293;28;19924;-71
2022/04/02 03:10:17;;;;;;;;;;;0.80;99.40;;;;;;5037136;28;20007;-71
2022/04/02 03:12:42;;;;;;;;;;;0.80;99.40;;;;;;5039004;28;19916;-71
2022/04/02 03:15:08;;;;;;;;;;;0.80;99.40;;;;;;5038828;28;19913;-71
2022/04/02 03:17:33;;;;;;;;;;;0.80;99.40;;;;;;5039029;28;20358;-71
2022/04/02 03:20:00;;;;;;;;;;;0.80;99.50;;;;;;5038640;28;20270;-71
2022/04/02 03:22:26;;;;;;;;;;;0.70;99.50;;;;;;5038447;28;19999;-71
2022/04/02 03:24:52;;;;;;;;;;;0.70;99.40;;;;;;5038551;28;19909;-71
2022/04/02 03:27:18;;;;;;;;;;;0.70;99.40;;;;;;5035858;28;20325;-71
2022/04/02 03:29:43;;;;;;;;;;;0.70;99.50;;;;;;5038324;28;19909;-72
2022/04/02 03:32:09;;;;;;;;;;;0.60;99.50;;;;;;5038175;28;19921;-71
2022/04/02 03:34:34;;;;;;;;;;;0.60;99.50;;;;;;5042141;28;19909;-71
2022/04/02 03:36:59;;;;;;;;;;;0.60;99.50;;;;;;5042649;28;19960;-71
2022/04/02 03:39:25;;;;;;;;;;;0.60;99.60;;;;;;5042108;28;20340;-71
2022/04/02 03:41:53;;;;;;;;;;;0.60;99.60;;;;;;5042352;28;20342;-71
2022/04/02 03:44:18;;;;;;;;;;;0.50;99.60;;;;;;5039309;28;19917;-71
2022/04/02 03:49:28;;;;;;;;;;;0.50;99.60;;;;;;5042409;28;20333;-71
2022/04/02 03:51:53;;;;;;;;;;;0.50;99.60;;;;;;5041400;28;20003;-71
2022/04/02 03:54:19;;;;;;;;;;;0.40;99.60;;;;;;5041668;28;19917;-71
2022/04/02 03:56:44;;;;;;;;;;;0.40;99.60;;;;;;5042682;28;19937;-71
2022/04/02 03:59:11;;;;;;;;;;;0.30;99.70;;;;;;5042426;28;19913;-71
2022/04/02 04:01:37;;;;;;;;;;;0.30;99.70;;;;;;5040281;28;19936;-71
2022/04/02 04:04:03;;;;;;;;;;;0.30;99.70;;;;;;5041967;28;19966;-71
2022/04/02 04:06:28;;;;;;;;;;;0.30;99.70;;;;;;5042322;28;20293;-71
2022/04/02 04:08:56;;;;;;;;;;;0.20;99.70;;;;;;5042283;28;20016;-71
2022/04/02 04:11:23;;;;;;;;;;;0.20;99.90;;;;;;5041266;28;19917;-72
2022/04/02 04:13:48;;;;;;;;;;;0.20;99.90;;;;;;5042187;28;19909;-71
2022/04/02 04:16:14;;;;;;;;;;;0.20;99.90;;;;;;5040090;28;20439;-71
2022/04/02 04:18:39;;;;;;;;;;;0.20;99.90;;;;;;5041789;28;19938;-71
2022/04/02 04:21:05;;;;;;;;;;;0.10;99.90;;;;;;5041436;28;19944;-71
2022/04/02 04:23:30;;;;;;;;;;;0.10;99.90;;;;;;5041771;28;19963;-71
2022/04/02 04:25:56;;;;;;;;;;;0.10;99.90;;;;;;5041754;28;20020;-71
2022/04/02 04:28:21;;;;;;;;;;;0.10;99.90;;;;;;5041604;28;19917;-71
2022/04/02 04:30:48;;;;;;;;;;;0.10;99.90;;;;;;5041386;28;19962;-71
2022/04/02 04:33:14;;;;;;;;;;;0.00;99.90;;;;;;5039560;28;20290;-71
2022/04/02 04:35:40;;;;;;;;;;;0.00;99.90;;;;;;5040781;28;19912;-71
2022/04/02 04:38:06;;;;;;;;;;;0.00;99.90;;;;;;5040980;28;20487;-70
2022/04/02 04:40:32;;;;;;;;;;;0.00;99.90;;;;;;5041530;28;19913;-71
2022/04/02 04:42:58;;;;;;;;;;;0.00;99.90;;;;;;5041145;28;19913;-71
2022/04/02 04:45:23;;;;;;;;;;;0.00;99.90;;;;;;5040147;28;19909;-71
2022/04/02 04:47:49;;;;;;;;;;;-0.10;99.90;;;;;;5041107;28;19920;-71
2022/04/02 04:50:14;;;;;;;;;;;0.00;99.90;;;;;;5037800;28;19913;-71
2022/04/02 04:52:40;;;;;;;;;;;-0.10;99.90;;;;;;5041378;28;19917;-71
2022/04/02 04:55:06;;;;;;;;;;;0.00;99.90;;;;;;5040831;28;20008;-71
2022/04/02 04:57:31;;;;;;;;;;;0.00;99.90;;;;;;5041552;28;19924;-71
2022/04/02 04:59:57;;;;;;;;;;;0.00;99.90;;;;;;5041353;28;20358;-71
2022/04/02 05:02:22;;;;;;;;;;;0.00;99.90;;;;;;5037380;28;19944;-71
2022/04/02 05:04:48;;;;;;;;;;;0.00;99.90;;;;;;5036982;28;19996;-71
2022/04/02 05:07:14;;;;;;;;;;;0.00;99.90;;;;;;5040843;28;19913;-71
2022/04/02 05:09:41;;;;;;;;;;;0.00;99.90;;;;;;5037855;28;19924;-71
2022/04/02 05:12:07;;;;;;;;;;;0.10;99.90;;;;;;5038433;28;19924;-70
2022/04/02 05:14:35;;;;;;;;;;;0.10;99.90;;;;;;5038943;28;19913;-71
2022/04/02 05:17:00;;;;;;;;;;;0.20;99.90;;;;;;5035496;28;19952;-71
2022/04/02 05:19:26;;;;;;;;;;;0.20;99.90;;;;;;5038728;28;19955;-71
2022/04/02 05:21:52;;;;;;;;;;;0.30;99.90;;;;;;5036843;28;19920;-71
2022/04/02 05:24:17;;;;;;;;;;;0.30;99.90;;;;;;5039554;28;19933;-71
2022/04/02 05:26:47;;;;;;;;;;;0.40;99.90;;;;;;5036324;28;20370;-71
2022/04/02 05:29:13;;;;;;;;;;;0.40;99.90;;;;;;5037583;28;19917;-71
2022/04/02 05:31:41;;;;;;;;;;;0.40;99.90;;;;;;5034269;28;19960;-71
2022/04/02 05:34:06;;;;;;;;;;;0.50;99.90;;;;;;5036771;28;19924;-71
2022/04/02 05:36:32;;;;;;;;;;;0.50;99.90;;;;;;5034719;28;19921;-71
2022/04/02 05:38:58;;;;;;;;;;;0.60;99.90;;;;;;5035318;28;19912;-69
2022/04/02 05:41:24;;;;;;;;;;;0.60;99.90;;;;;;5033125;28;19923;-72
2022/04/02 05:43:49;;;;;;;;;;;0.70;99.90;;;;;;5037959;28;19955;-70
2022/04/02 05:46:16;;;;;;;;;;;0.70;99.90;;;;;;5037421;28;19982;-71
2022/04/02 05:48:42;;;;;;;;;;;0.80;99.90;;;;;;5038706;28;20433;-71
2022/04/02 05:51:08;;;;;;;;;;;0.80;99.90;;;;;;5036255;28;20087;-71
2022/04/02 05:53:33;;;;;;;;;;;0.90;99.90;;;;;;5038359;28;19913;-71
2022/04/02 05:55:59;;;;;;;;;;;1.00;99.90;;;;;;5038665;28;19959;-71
2022/04/02 05:58:25;;;;;;;;;;;1.00;99.80;;;;;;5036953;28;19975;-71
2022/04/02 06:00:51;;;;;;;;;;;1.00;99.80;;;;;;5034554;28;19982;-71
2022/04/02 06:03:17;;;;;;;;;;;1.00;99.80;;;;;;5038083;28;19924;-71
2022/04/02 06:05:43;;;;;;;;;;;1.00;99.60;;;;;;5036944;28;19923;-71
2022/04/02 06:08:10;;;;;;;;;;;1.10;99.70;;;;;;5039423;28;20632;-71
2022/04/02 06:10:35;;;;;;;;;;;1.10;99.60;;;;;;5037189;28;19991;-71
2022/04/02 06:13:01;;;;;;;;;;;1.20;99.50;;;;;;5038750;28;20007;-71
2022/04/02 06:15:27;;;;;;;;;;;1.30;99.50;;;;;;5036757;28;19992;-71
2022/04/02 06:17:53;;;;;;;;;;;1.30;99.30;;;;;;5037710;28;20465;-71
2022/04/02 06:20:19;;;;;;;;;;;1.40;99.20;;;;;;5037112;28;20135;-71
2022/04/02 06:22:44;;;;;;;;;;;1.40;99.10;;;;;;5039487;28;19956;-71
2022/04/02 06:25:10;;;;;;;;;;;1.40;99.10;;;;;;5035456;28;19913;-71
2022/04/02 06:27:45;;;;;;;;;;;1.40;99.00;;;;;;5039113;28;19917;-71
2022/04/02 06:30:11;;;;;;;;;;;1.50;99.10;;;;;;5032584;28;19913;-71
2022/04/02 06:32:36;;;;;;;;;;;1.60;99.10;;;;;;5039077;28;19913;-71
2022/04/02 06:35:02;;;;;;;;;;;1.60;98.80;;;;;;5036887;28;19992;-71
2022/04/02 06:37:32;;;;;;;;;;;1.70;98.80;;;;;;5038226;28;20019;-71
2022/04/02 06:39:57;;;;;;;;;;;1.70;98.60;;;;;;5034792;28;20289;-71
2022/04/02 06:42:22;;;;;;;;;;;1.80;98.60;;;;;;5038482;28;19913;-72
2022/04/02 06:44:48;;;;;;;;;;;1.80;98.40;;;;;;5033422;28;19921;-72
2022/04/02 06:47:13;;;;;;;;;;;1.70;98.10;;;;;;5033925;28;19956;-71
2022/04/02 06:49:39;;;;;;;;;;;1.70;98.00;;;;;;5036939;28;19917;-72
2022/04/02 06:52:04;;;;;;;;;;;1.70;98.10;;;;;;5037215;28;19913;-72
2022/04/02 06:54:30;;;;;;;;;;;1.70;98.10;;;;;;5036363;28;19920;-70
2022/04/02 06:56:56;;;;;;;;;;;1.70;98.10;;;;;;5036035;28;20415;-72
2022/04/02 06:59:21;;;;;;;;;;;1.80;98.20;;;;;;5037059;28;19917;-72
2022/04/02 07:01:46;;;;;;;;;;;1.90;98.00;;;;;;5037342;28;19913;-72
2022/04/02 07:04:12;;;;;;;;;;;1.90;97.80;;;;;;5032533;28;19913;-72
2022/04/02 07:06:44;;;;;;;;;;;1.90;97.70;;;;;;5038849;28;19909;-72
2022/04/02 07:09:09;;;;;;;;;;;1.90;97.80;;;;;;5034753;28;20353;-71
2022/04/02 07:11:35;;;;;;;;;;;2.00;97.70;;;;;;5036675;28;19913;-72
2022/04/02 07:14:00;;;;;;;;;;;2.10;97.60;;;;;;5032927;28;19944;-72
2022/04/02 07:16:27;;;;;;;;;;;2.20;97.50;;;;;;5036843;28;20007;-73
2022/04/02 07:18:52;;;;;;;;;;;2.20;97.30;;;;;;5036387;28;19917;-72
2022/04/02 07:21:19;;;;;;;;;;;2.30;97.10;;;;;;5036105;28;20060;-72
2022/04/02 07:23:45;;;;;;;;;;;2.30;97.00;;;;;;5034011;28;20310;-72
2022/04/02 07:26:11;;;;;;;;;;;2.30;97.00;;;;;;5034749;28;19949;-72
2022/04/02 07:28:37;;;;;;;;;;;2.40;96.90;;;;;;5035183;28;20518;-73
2022/04/02 07:31:02;;;;;;;;;;;2.50;96.60;;;;;;5035707;28;19917;-71
2022/04/02 07:33:27;;;;;;;;;;;2.50;96.40;;;;;;5035728;28;20014;-72
2022/04/02 07:35:55;;;;;;;;;;;2.50;96.40;;;;;;5037436;28;20372;-72
2022/04/02 07:38:22;;;;;;;;;;;2.50;96.50;;;;;;5035567;28;19917;-72
2022/04/02 07:41:01;;;;;;;;;;;2.60;96.40;;;;;;5035004;28;19951;-71
2022/04/02 07:43:36;;;;;;;;;;;2.60;96.40;;;;;;5035347;28;20404;-72
2022/04/02 07:46:08;;;;;;;;;;;2.70;96.00;;;;;;5036110;28;19913;-71
2022/04/02 07:48:36;;;;;;;;;;;2.70;96.00;;;;;;5035334;28;19967;-71
2022/04/02 07:51:05;;;;;;;;;;;2.70;95.70;;;;;;5035464;28;20290;-71
2022/04/02 07:53:34;;;;;;;;;;;2.60;95.70;;;;;;5035142;28;20392;-69
2022/04/02 07:56:02;;;;;;;;;;;2.60;95.90;;;;;;5035654;28;19913;-71
2022/04/02 07:58:30;;;;;;;;;;;2.70;95.80;;;;;;5031915;28;19920;-69
2022/04/02 08:00:55;;;;;;;;;;;2.70;95.60;;;;;;5032636;28;19920;-70
2022/04/02 08:03:23;;;;;;;;;;;2.70;95.60;;;;;;5034997;28;19921;-71
2022/04/02 08:05:48;;;;;;;;;;;2.80;95.60;;;;;;5036017;28;20382;-71
2022/04/02 08:08:14;;;;;;;;;;;2.70;95.40;;;;;;5033474;28;19924;-71
2022/04/02 08:10:45;;;;;;;;;;;2.80;95.50;;;;;;5038568;28;19917;-72
2022/04/02 08:13:13;;;;;;;;;;;2.80;95.30;;;;;;5031200;28;19924;-72
2022/04/02 08:15:38;;;;;;;;;;;2.80;95.10;;;;;;5030245;28;19920;-73
2022/04/02 08:18:05;;;;;;;;;;;2.80;95.20;;;;;;5033026;28;19937;-71
2022/04/02 08:20:31;;;;;;;;;;;2.80;95.30;;;;;;5040057;28;19913;-71
2022/04/02 08:22:56;;;;;;;;;;;2.80;95.20;;;;;;5039294;28;20388;-71
2022/04/02 08:25:22;;;;;;;;;;;2.80;95.30;;;;;;5040934;28;19921;-71
2022/04/02 08:28:02;;;;;;;;;;;2.80;95.30;;;;;;5040950;28;19959;-72
2022/04/02 08:30:30;;;;;;;;;;;2.90;95.30;;;;;;5041138;28;19909;-73
2022/04/02 08:33:08;;;;;;;;;;;2.90;95.10;;;;;;5038058;28;19913;-72
2022/04/02 08:35:52;;;;;;;;;;;2.90;95.00;;;;;;5041007;28;19909;-72
2022/04/02 08:38:17;;;;;;;;;;;2.90;95.10;;;;;;5040890;28;19917;-72
2022/04/02 08:40:49;;;;;;;;;;;2.90;94.90;;;;;;5041471;28;19915;-72
2022/04/02 08:43:32;;;;;;;;;;;2.90;94.90;;;;;;5041148;28;20527;-72
2022/04/02 08:46:01;;;;;;;;;;;3.00;94.80;;;;;;5041291;28;19919;-72
2022/04/02 08:48:27;;;;;;;;;;;3.10;94.90;;;;;;5039627;28;19932;-72
2022/04/02 08:51:02;;;;;;;;;;;3.10;94.80;;;;;;5040641;28;19958;-72
2022/04/02 08:53:38;;;;;;;;;;;3.20;94.60;;;;;;5041050;28;19917;-72
2022/04/02 08:56:05;;;;;;;;;;;3.30;94.50;;;;;;5040440;28;19928;-72
2022/04/02 08:58:31;;;;;;;;;;;3.40;94.10;;;;;;5040515;28;19917;-72
2022/04/02 09:01:07;;;;;;;;;;;3.40;93.90;;;;;;5040454;28;20047;-72
2022/04/02 09:03:32;;;;;;;;;;;3.40;94.00;;;;;;5039830;28;19936;-72
2022/04/02 09:06:16;;;;;;;;;;;3.50;94.00;;;;;;5038647;28;19960;-72
2022/04/02 09:08:42;;;;;;;;;;;3.50;94.00;;;;;;5041030;28;19909;-72
2022/04/02 09:11:20;;;;;;;;;;;3.70;94.10;;;;;;5041297;28;20384;-72
2022/04/02 09:13:59;;;;;;;;;;;3.80;93.20;;;;;;5040838;28;20011;-72
2022/04/02 09:16:28;;;;;;;;;;;3.80;93.30;;;;;;5040470;28;20097;-72
2022/04/02 09:19:09;;;;;;;;;;;3.80;92.90;;;;;;5040775;28;20365;-72
2022/04/02 09:21:34;;;;;;;;;;;3.80;92.60;;;;;;5039255;28;19913;-72
2022/04/02 09:24:00;;;;;;;;;;;3.80;92.90;;;;;;5038416;28;19967;-72
2022/04/02 09:26:40;;;;;;;;;;;3.90;92.90;;;;;;5040412;28;19955;-72
2022/04/02 09:29:24;;;;;;;;;;;3.90;92.30;;;;;;5040116;28;19951;-73
2022/04/02 09:32:00;;;;;;;;;;;3.80;92.50;;;;;;5039417;28;19916;-73
2022/04/02 09:34:38;;;;;;;;;;;3.90;92.50;;;;;;5040119;28;19919;-73
2022/04/02 09:37:08;;;;;;;;;;;4.00;92.40;;;;;;5039895;28;19913;-73
2022/04/02 09:39:40;;;;;;;;;;;4.10;91.80;;;;;;5040632;28;20272;-72
2022/04/02 09:42:16;;;;;;;;;;;4.10;92.10;;;;;;5037516;28;19917;-72
2022/04/02 09:44:49;;;;;;;;;;;4.20;91.80;;;;;;5038464;28;19913;-72
2022/04/02 09:47:38;;;;;;;;;;;4.20;91.60;;;;;;5038255;28;19996;-71
2022/04/02 09:50:03;;;;;;;;;;;4.30;91.70;;;;;;5039504;28;19913;-72
2022/04/02 09:52:30;;;;;;;;;;;4.40;91.60;;;;;;5039480;28;19920;-72
2022/04/02 09:55:12;;;;;;;;;;;4.40;90.90;;;;;;5039664;28;19909;-72
2022/04/02 09:57:56;;;;;;;;;;;4.40;90.70;;;;;;5039422;28;19913;-72
2022/04/02 10:00:30;;;;;;;;;;;4.30;89.90;;;;;;5039207;28;20496;-72
2022/04/02 10:03:01;;;;;;;;;;;4.30;89.80;;;;;;5037147;28;19975;-72
2022/04/02 10:05:46;;;;;;;;;;;4.30;89.00;;;;;;5038901;28;19917;-72
2022/04/02 10:08:26;;;;;;;;;;;4.20;88.90;;;;;;5039935;28;19913;-72
2022/04/02 10:10:55;;;;;;;;;;;4.20;89.70;;;;;;5039745;28;19913;-72
2022/04/02 10:13:21;;;;;;;;;;;4.20;90.10;;;;;;5039845;28;19909;-72
2022/04/02 10:15:47;;;;;;;;;;;4.20;90.00;;;;;;5039900;28;19913;-72
2022/04/02 10:18:13;;;;;;;;;;;4.30;90.10;;;;;;5037674;28;20017;-72
2022/04/02 10:20:39;;;;;;;;;;;4.40;89.80;;;;;;5039687;28;20001;-72
2022/04/02 10:23:14;;;;;;;;;;;4.40;89.60;;;;;;5039525;28;20340;-72
2022/04/02 10:25:58;;;;;;;;;;;4.50;88.80;;;;;;5039273;28;19916;-73
2022/04/02 10:28:27;;;;;;;;;;;4.70;87.60;;;;;;5039477;28;19967;-73
2022/04/02 10:30:55;;;;;;;;;;;4.90;85.20;;;;;;5039307;28;20004;-73
2022/04/02 10:33:27;;;;;;;;;;;4.90;82.60;;;;;;5037452;28;19915;-73
2022/04/02 10:35:53;;;;;;;;;;;4.90;82.90;;;;;;5038529;28;20250;-73
2022/04/02 10:38:27;;;;;;;;;;;5.00;82.50;;;;;;5038968;28;20045;-73
2022/04/02 10:40:53;;;;;;;;;;;5.10;79.80;;;;;;5038705;28;19909;-73
2022/04/02 10:43:25;;;;;;;;;;;5.20;78.40;;;;;;5038579;28;19935;-73
2022/04/02 10:45:50;;;;;;;;;;;5.20;76.80;;;;;;5035383;28;19913;-72
2022/04/02 10:48:19;;;;;;;;;;;5.10;76.00;;;;;;5033215;28;20007;-71
2022/04/02 10:50:45;;;;;;;;;;;5.00;76.40;;;;;;5037578;28;19949;-72
2022/04/02 10:53:11;;;;;;;;;;;5.00;76.00;;;;;;5038239;28;19948;-72
2022/04/02 10:55:47;;;;;;;;;;;5.00;76.70;;;;;;5038984;28;19913;-72
2022/04/02 10:58:13;;;;;;;;;;;5.00;75.70;;;;;;5033037;28;20345;-72
2022/04/02 11:00:44;;;;;;;;;;;5.10;76.00;;;;;;5036858;28;19920;-72
2022/04/02 11:03:15;;;;;;;;;;;5.20;74.40;;;;;;5032830;28;19920;-71
2022/04/02 11:05:40;;;;;;;;;;;5.20;74.10;;;;;;5034805;28;19921;-72
2022/04/02 11:08:10;;;;;;;;;;;5.30;74.80;;;;;;5036998;28;20427;-72
2022/04/02 11:10:35;;;;;;;;;;;5.30;74.70;;;;;;5037819;28;19909;-72
2022/04/02 11:13:02;;;;;;;;;;;5.40;71.00;;;;;;5034893;28;19924;-72
2022/04/02 11:15:46;;;;;;;;;;;5.40;70.80;;;;;;5034155;28;20692;-73
2022/04/02 11:18:18;;;;;;;;;;;5.30;70.00;;;;;;5038867;28;19917;-72
2022/04/02 11:20:44;;;;;;;;;;;5.40;70.20;;;;;;5039178;28;19917;-73
2022/04/02 11:23:12;;;;;;;;;;;5.40;69.00;;;;;;5035765;28;19920;-73
2022/04/02 11:25:40;;;;;;;;;;;5.50;68.70;;;;;;5037781;28;19913;-73
2022/04/02 11:28:05;;;;;;;;;;;5.60;67.90;;;;;;5037497;28;19975;-73
2022/04/02 11:30:31;;;;;;;;;;;5.70;68.10;;;;;;5037627;28;20266;-73
2022/04/02 11:33:07;;;;;;;;;;;5.90;63.90;;;;;;5037693;28;20365;-73
2022/04/02 11:35:40;;;;;;;;;;;5.90;62.10;;;;;;5038012;28;19913;-74
2022/04/02 11:38:17;;;;;;;;;;;5.90;60.40;;;;;;5037653;28;19917;-74
2022/04/02 11:40:46;;;;;;;;;;;6.00;59.30;;;;;;5036758;28;20392;-74
2022/04/02 11:43:12;;;;;;;;;;;6.00;59.50;;;;;;5037801;28;20416;-73
2022/04/02 11:45:39;;;;;;;;;;;6.00;60.20;;;;;;5038175;28;19955;-74
2022/04/02 11:48:12;;;;;;;;;;;6.00;61.00;;;;;;5037333;28;19955;-74
2022/04/02 11:50:40;;;;;;;;;;;6.20;59.50;;;;;;5035110;28;20393;-73
2022/04/02 11:53:05;;;;;;;;;;;6.40;56.50;;;;;;5027318;28;19917;-73
2022/04/02 11:55:33;;;;;;;;;;;6.40;56.10;;;;;;5032376;28;19913;-73
2022/04/02 11:58:06;;;;;;;;;;;6.30;55.00;;;;;;5035762;28;20000;-74
2022/04/02 12:00:36;;;;;;;;;;;6.10;55.70;;;;;;5036429;28;20324;-74
2022/04/02 12:03:02;;;;;;;;;;;6.00;58.70;;;;;;5039776;28;19919;-73
2022/04/02 12:05:36;;;;;;;;;;;6.00;60.20;;;;;;5039023;28;20003;-74
2022/04/02 12:08:01;;;;;;;;;;;5.80;60.60;;;;;;5040678;28;19967;-74
2022/04/02 12:10:27;;;;;;;;;;;5.70;61.60;;;;;;5038911;28;19913;-74
2022/04/02 12:12:54;;;;;;;;;;;5.70;62.70;;;;;;5040146;28;19996;-74
2022/04/02 12:15:20;;;;;;;;;;;5.70;63.60;;;;;;5041431;28;19909;-74
2022/04/02 12:17:50;;;;;;;;;;;5.80;62.80;;;;;;5041672;28;20380;-75
2022/04/02 12:20:36;;;;;;;;;;;5.80;63.20;;;;;;5039725;28;19964;-73
2022/04/02 12:23:08;;;;;;;;;;;5.80;63.00;;;;;;5039217;28;19923;-74
2022/04/02 12:25:34;;;;;;;;;;;5.80;62.90;;;;;;5040267;28;19924;-74
2022/04/02 12:28:00;;;;;;;;;;;5.80;63.20;;;;;;5038072;28;19917;-74
2022/04/02 12:30:30;;;;;;;;;;;5.80;63.00;;;;;;5038498;28;19996;-74
2022/04/02 12:33:06;;;;;;;;;;;5.80;63.50;;;;;;5038449;28;19963;-74
2022/04/02 12:35:32;;;;;;;;;;;5.80;63.30;;;;;;5041081;28;19912;-74
2022/04/02 12:38:01;;;;;;;;;;;5.90;62.60;;;;;;5038935;28;20289;-74
2022/04/02 12:40:31;;;;;;;;;;;5.80;62.20;;;;;;5041353;28;19909;-74
2022/04/02 12:43:01;;;;;;;;;;;5.80;62.20;;;;;;5037877;28;19917;-74
2022/04/02 12:45:28;;;;;;;;;;;5.70;62.30;;;;;;5036214;28;20358;-74
2022/04/02 12:48:08;;;;;;;;;;;5.70;63.20;;;;;;5037940;28;19979;-74
2022/04/02 12:50:35;;;;;;;;;;;5.60;63.60;;;;;;5039602;28;20277;-74
2022/04/02 12:53:00;;;;;;;;;;;5.50;64.30;;;;;;5036651;28;19925;-74
2022/04/02 12:55:27;;;;;;;;;;;5.40;64.70;;;;;;5038105;28;19913;-74
2022/04/02 12:57:57;;;;;;;;;;;5.40;65.00;;;;;;5037383;28;19940;-74
2022/04/02 13:00:26;;;;;;;;;;;5.40;65.40;;;;;;5038710;28;19967;-73
2022/04/02 13:02:55;;;;;;;;;;;5.60;65.70;;;;;;5037430;28;19913;-74
2022/04/02 13:05:23;;;;;;;;;;;5.70;65.30;;;;;;5036516;28;19948;-73
2022/04/02 13:08:09;;;;;;;;;;;5.70;65.30;;;;;;5037139;28;19924;-73
2022/04/02 13:10:40;;;;;;;;;;;5.80;63.60;;;;;;5038101;28;19968;-74
2022/04/02 13:13:07;;;;;;;;;;;5.90;62.40;;;;;;5039321;28;20374;-73
2022/04/02 13:15:33;;;;;;;;;;;5.90;62.20;;;;;;5039688;28;19913;-73
2022/04/02 13:20:45;;;;;;;;;;;6.10;60.30;;;;;;5037815;28;19975;-73
2022/04/02 13:23:30;;;;;;;;;;;6.20;60.80;;;;;;5040323;28;19912;-74
2022/04/02 13:26:02;;;;;;;;;;;6.30;58.90;;;;;;5038265;28;20380;-74
2022/04/02 13:28:39;;;;;;;;;;;6.40;59.40;;;;;;5036997;28;19966;-74
2022/04/02 13:31:04;;;;;;;;;;;6.40;59.30;;;;;;5038638;28;20324;-74
2022/04/02 13:33:43;;;;;;;;;;;6.60;59.70;;;;;;5038536;28;19917;-74
2022/04/02 13:36:24;;;;;;;;;;;6.80;58.80;;;;;;5035915;28;19959;-74
2022/04/02 13:38:55;;;;;;;;;;;6.70;57.20;;;;;;5038867;28;19928;-74
2022/04/02 13:41:26;;;;;;;;;;;6.70;55.60;;;;;;5036750;28;19939;-73
2022/04/02 13:43:53;;;;;;;;;;;6.70;54.80;;;;;;5039144;28;19974;-74
2022/04/02 13:46:21;;;;;;;;;;;6.50;54.80;;;;;;5035039;28;19917;-73
2022/04/02 13:48:52;;;;;;;;;;;6.50;55.40;;;;;;5035778;28;19959;-73
2022/04/02 13:51:18;;;;;;;;;;;6.50;55.60;;;;;;5035983;28;20435;-73
2022/04/02 13:53:47;;;;;;;;;;;6.50;55.50;;;;;;5037052;28;19913;-73
2022/04/02 13:56:14;;;;;;;;;;;6.60;55.40;;;;;;5036408;28;19913;-72
2022/04/02 13:58:44;;;;;;;;;;;6.80;54.40;;;;;;5039094;28;19987;-73
2022/04/02 14:01:13;;;;;;;;;;;6.70;53.40;;;;;;5037992;28;19913;-73
2022/04/02 14:03:39;;;;;;;;;;;6.50;53.60;;;;;;5039845;28;19909;-74
2022/04/02 14:06:06;;;;;;;;;;;6.40;54.50;;;;;;5038647;28;19923;-74
2022/04/02 14:08:35;;;;;;;;;;;6.30;54.70;;;;;;5039504;28;19959;-74
2022/04/02 14:11:05;;;;;;;;;;;6.20;55.10;;;;;;5034185;28;19917;-74
2022/04/02 14:13:34;;;;;;;;;;;6.10;55.90;;;;;;5038321;28;19916;-74
2022/04/02 14:16:00;;;;;;;;;;;6.10;56.40;;;;;;5039049;28;20000;-74
2022/04/02 14:18:33;;;;;;;;;;;6.10;56.30;;;;;;5039366;28;20453;-73
2022/04/02 14:21:07;;;;;;;;;;;6.00;56.20;;;;;;5039511;28;19944;-73
2022/04/02 14:23:48;;;;;;;;;;;6.10;56.10;;;;;;5038655;28;19913;-73
2022/04/02 14:26:16;;;;;;;;;;;6.10;55.40;;;;;;5036767;28;19917;-73
2022/04/02 14:28:53;;;;;;;;;;;6.00;55.70;;;;;;5039212;28;19909;-75
2022/04/02 14:31:31;;;;;;;;;;;6.10;56.30;;;;;;5036316;28;20277;-75
2022/04/02 14:33:56;;;;;;;;;;;6.20;56.20;;;;;;5032506;28;19948;-72
2022/04/02 14:36:57;;;;;;;;;;;6.40;56.20;;;;;;5035937;28;19961;-73
2022/04/02 14:39:22;;;;;;;;;;;6.40;55.60;;;;;;4958770;28;19919;-74
2022/04/02 14:42:00;;;;;;;;;;;6.40;55.00;;;;;;5018536;28;20544;-74
2022/04/02 14:44:26;;;;;;;;;;;6.40;55.30;;;;;;5036381;28;19913;-74